Time;durP1;ratioP1;P1;durP2;ratioP2;P2;SDS_P1;SDS_P2;PMS_P1;PMS_P2;Temp;Humidity;BMP_temperature;BMP_pressure;BME280_temperature;BME280_humidity;BME280_pressure;Samples;Min_cycle;Max_cycle;Signal;HPM_P1;HPM_P2
2022/05/11 00:02:15;;;;;;;6.25;5.75;;;17.70;99.90;;;;;;4991521;28;20248;-72
2022/05/11 00:04:44;;;;;;;5.22;4.82;;;17.70;99.90;;;;;;4992056;28;20655;-73
2022/05/11 00:07:12;;;;;;;6.65;6.15;;;17.80;99.90;;;;;;4992079;28;20254;-73
2022/05/11 00:09:40;;;;;;;5.53;5.22;;;17.80;99.90;;;;;;5000675;28;20672;-73
2022/05/11 00:12:09;;;;;;;6.47;5.97;;;17.80;99.90;;;;;;4993157;28;20671;-72
2022/05/11 00:14:37;;;;;;;6.20;5.60;;;17.80;99.90;;;;;;4991836;28;20198;-72
2022/05/11 00:17:05;;;;;;;7.05;6.07;;;17.80;99.90;;;;;;4991234;28;20257;-72
2022/05/11 00:19:33;;;;;;;7.18;6.32;;;17.80;99.90;;;;;;4991920;28;20682;-72
2022/05/11 00:22:03;;;;;;;6.25;5.75;;;17.80;99.90;;;;;;4991204;28;20218;-71
2022/05/11 00:24:31;;;;;;;6.68;6.20;;;17.80;99.90;;;;;;4991216;28;20237;-72
2022/05/11 00:27:00;;;;;;;5.68;5.28;;;17.80;99.90;;;;;;4991743;28;20261;-72
2022/05/11 00:29:28;;;;;;;6.18;5.78;;;17.80;99.90;;;;;;4991929;28;20312;-72
2022/05/11 00:31:58;;;;;;;5.75;5.25;;;17.80;99.90;;;;;;4991449;28;20210;-71
2022/05/11 00:34:26;;;;;;;5.80;5.50;;;17.80;99.90;;;;;;4991626;28;20225;-72
2022/05/11 00:36:54;;;;;;;5.15;4.75;;;17.80;99.90;;;;;;4991321;28;20238;-71
2022/05/11 00:39:23;;;;;;;6.20;5.60;;;17.90;99.90;;;;;;4993890;28;20745;-72
2022/05/11 00:41:51;;;;;;;5.57;5.13;;;17.90;99.90;;;;;;4997065;28;20241;-72
2022/05/11 00:44:20;;;;;;;6.70;6.20;;;17.90;99.90;;;;;;4991197;28;20601;-71
2022/05/11 00:46:56;;;;;;;6.88;5.60;;;17.90;99.90;;;;;;4991571;28;20250;-72
2022/05/11 00:49:38;;;;;;;6.05;5.55;;;17.90;99.90;;;;;;4980291;28;20241;-71
2022/05/11 00:52:11;;;;;;;7.53;5.32;;;17.90;99.90;;;;;;4986625;28;20255;-71
2022/05/11 00:54:45;;;;;;;5.20;4.90;;;17.80;99.90;;;;;;4995552;28;20291;-71
2022/05/11 00:57:19;;;;;;;6.45;6.05;;;17.80;99.90;;;;;;4992008;28;20241;-72
2022/05/11 00:59:50;;;;;;;5.50;5.20;;;17.80;99.90;;;;;;4995553;28;20249;-71
2022/05/11 01:02:19;;;;;;;5.40;5.07;;;17.80;99.90;;;;;;4987238;28;20205;-70
2022/05/11 01:04:47;;;;;;;5.50;5.00;;;17.70;99.90;;;;;;4997136;28;20201;-71
2022/05/11 01:07:15;;;;;;;6.50;6.10;;;17.70;99.90;;;;;;4992042;28;20225;-72
2022/05/11 01:09:44;;;;;;;6.50;6.00;;;17.70;99.90;;;;;;4990134;28;20806;-71
2022/05/11 01:12:15;;;;;;;6.15;5.65;;;17.60;99.90;;;;;;4991839;28;20667;-73
2022/05/11 01:14:45;;;;;;;5.20;4.80;;;17.60;99.90;;;;;;4997229;28;20241;-73
2022/05/11 01:17:13;;;;;;;5.85;5.45;;;17.60;99.90;;;;;;4996032;28;20710;-74
2022/05/11 01:19:45;;;;;;;6.95;6.32;;;17.60;99.90;;;;;;4988515;28;20194;-73
2022/05/11 01:22:19;;;;;;;7.15;4.97;;;17.60;99.90;;;;;;4986758;28;20211;-73
2022/05/11 01:24:50;;;;;;;6.15;5.65;;;17.60;99.90;;;;;;4992107;28;20238;-74
2022/05/11 01:27:31;;;;;;;6.28;5.88;;;17.60;99.90;;;;;;4994292;28;20190;-73
2022/05/11 01:30:03;;;;;;;6.43;5.85;;;17.50;99.90;;;;;;4991717;28;20209;-71
2022/05/11 01:32:32;;;;;;;6.13;5.25;;;17.50;99.90;;;;;;4991754;28;20733;-72
2022/05/11 01:35:28;;;;;;;6.65;6.15;;;17.50;99.90;;;;;;4988994;28;20206;-71
2022/05/11 01:38:08;;;;;;;6.32;5.82;;;17.40;99.90;;;;;;4998317;28;20206;-72
2022/05/11 01:40:37;;;;;;;6.53;6.03;;;17.40;99.90;;;;;;4990320;28;20301;-72
2022/05/11 01:43:05;;;;;;;7.10;6.50;;;17.40;99.90;;;;;;4990401;28;20637;-70
2022/05/11 01:45:33;;;;;;;7.25;6.60;;;17.30;99.90;;;;;;5000317;28;20217;-71
2022/05/11 01:48:01;;;;;;;7.25;6.65;;;17.30;99.90;;;;;;4996793;28;20214;-71
2022/05/11 01:50:29;;;;;;;6.90;6.30;;;17.20;99.90;;;;;;5000292;28;20217;-72
2022/05/11 01:52:57;;;;;;;8.35;6.72;;;17.10;99.90;;;;;;4997187;28;20205;-71
2022/05/11 01:55:25;;;;;;;7.05;6.53;;;17.10;99.90;;;;;;5000423;28;20308;-72
2022/05/11 01:57:54;;;;;;;6.68;6.18;;;17.00;99.90;;;;;;4996175;28;20214;-72
2022/05/11 02:00:22;;;;;;;7.13;6.50;;;17.00;99.90;;;;;;5003165;28;20947;-71
2022/05/11 02:02:51;;;;;;;7.07;6.60;;;17.00;99.90;;;;;;4996115;28;20679;-71
2022/05/11 02:08:05;;;;;;;7.43;6.93;;;17.00;99.90;;;;;;4999637;28;20213;-72
2022/05/11 02:10:34;;;;;;;9.30;6.95;;;17.00;99.90;;;;;;4992168;28;20230;-72
2022/05/11 02:13:03;;;;;;;7.00;6.45;;;17.00;99.90;;;;;;5002573;28;20209;-71
2022/05/11 02:15:31;;;;;;;6.80;6.30;;;17.00;99.90;;;;;;4996725;28;20639;-72
2022/05/11 02:17:59;;;;;;;7.50;6.80;;;17.00;99.90;;;;;;5000656;28;20233;-72
2022/05/11 02:20:27;;;;;;;6.50;6.10;;;17.00;99.90;;;;;;4993639;28;20198;-72
2022/05/11 02:22:55;;;;;;;7.63;7.13;;;17.00;99.90;;;;;;5005892;28;20674;-72
2022/05/11 02:25:23;;;;;;;8.23;6.65;;;16.90;99.90;;;;;;4989412;28;20257;-71
2022/05/11 02:27:53;;;;;;;8.00;7.30;;;16.90;99.90;;;;;;4999415;28;20237;-72
2022/05/11 02:30:24;;;;;;;8.20;7.55;;;16.70;99.90;;;;;;4993775;28;20297;-72
2022/05/11 02:32:53;;;;;;;8.40;7.70;;;16.80;99.90;;;;;;4987430;28;20216;-72
2022/05/11 02:35:22;;;;;;;7.95;7.45;;;16.70;99.90;;;;;;4997606;28;20291;-72
2022/05/11 02:37:52;;;;;;;8.38;7.63;;;16.70;99.90;;;;;;5000019;28;20233;-73
2022/05/11 02:40:22;;;;;;;8.20;7.57;;;16.60;99.90;;;;;;4992527;28;20229;-73
2022/05/11 02:42:50;;;;;;;6.82;6.43;;;16.60;99.90;;;;;;4994860;28;20394;-72
2022/05/11 02:45:18;;;;;;;8.80;8.10;;;16.50;99.90;;;;;;4991993;28;20308;-72
2022/05/11 02:47:48;;;;;;;9.35;8.75;;;16.60;99.90;;;;;;4993339;28;20213;-72
2022/05/11 02:50:19;;;;;;;7.78;7.13;;;16.50;99.90;;;;;;4991884;28;20260;-71
2022/05/11 02:52:47;;;;;;;8.02;7.32;;;16.50;99.90;;;;;;4997757;28;20819;-73
2022/05/11 02:55:15;;;;;;;8.88;8.07;;;16.50;99.90;;;;;;4993709;28;20717;-73
2022/05/11 02:57:43;;;;;;;8.70;8.10;;;16.50;99.90;;;;;;4993911;28;20273;-73
2022/05/11 03:00:14;;;;;;;9.65;8.88;;;16.50;99.90;;;;;;5001420;28;20244;-73
2022/05/11 03:02:43;;;;;;;9.32;8.43;;;16.40;99.90;;;;;;4992373;28;20252;-73
2022/05/11 03:05:13;;;;;;;8.73;7.95;;;16.30;99.90;;;;;;4994297;28;20597;-73
2022/05/11 03:07:41;;;;;;;8.27;7.43;;;16.30;99.90;;;;;;4995082;28;20237;-72
2022/05/11 03:10:10;;;;;;;8.27;7.68;;;16.30;99.90;;;;;;4991795;28;20280;-73
2022/05/11 03:12:39;;;;;;;9.68;8.93;;;16.30;99.90;;;;;;4997020;28;20715;-73
2022/05/11 03:15:08;;;;;;;8.57;7.88;;;16.50;99.90;;;;;;4996247;28;20206;-73
2022/05/11 03:17:37;;;;;;;8.35;7.65;;;16.30;99.90;;;;;;5003676;28;20198;-73
2022/05/11 03:20:07;;;;;;;9.55;8.77;;;16.30;99.90;;;;;;4989156;28;20663;-73
2022/05/11 03:22:37;;;;;;;8.80;8.20;;;16.20;99.90;;;;;;4997082;28;20257;-72
2022/05/11 03:25:07;;;;;;;8.15;7.55;;;16.20;99.90;;;;;;4988750;28;20277;-72
2022/05/11 03:27:35;;;;;;;7.72;7.22;;;16.20;99.90;;;;;;4999483;28;20213;-73
2022/05/11 03:30:04;;;;;;;10.15;9.45;;;16.20;99.90;;;;;;4995825;28;20283;-73
2022/05/11 03:35:18;;;;;;;9.02;8.43;;;16.10;99.90;;;;;;4990648;28;20241;-71
2022/05/11 03:37:47;;;;;;;10.02;9.23;;;16.10;99.90;;;;;;4999084;28;20282;-74
2022/05/11 03:40:15;;;;;;;9.55;8.75;;;16.10;99.90;;;;;;4990488;28;20205;-74
2022/05/11 03:42:43;;;;;;;9.02;8.35;;;16.10;99.90;;;;;;4989159;28;20254;-73
2022/05/11 03:45:14;;;;;;;8.55;7.95;;;16.10;99.90;;;;;;4990963;28;20217;-74
2022/05/11 03:47:41;;;;;;;8.55;7.95;;;16.00;99.90;;;;;;4990072;28;20225;-73
2022/05/11 03:50:11;;;;;;;9.68;8.70;;;16.00;99.90;;;;;;4997503;28;20194;-73
2022/05/11 03:52:39;;;;;;;9.82;9.10;;;16.00;99.90;;;;;;4982281;28;20238;-75
2022/05/11 03:55:11;;;;;;;9.55;8.85;;;16.00;99.90;;;;;;4998444;28;20643;-74
2022/05/11 03:57:40;;;;;;;10.68;9.85;;;16.00;99.90;;;;;;4992059;28;20762;-74
2022/05/11 04:00:12;;;;;;;10.75;9.95;;;16.00;99.90;;;;;;4998144;28;20229;-73
2022/05/11 04:02:40;;;;;;;9.30;8.70;;;16.00;99.90;;;;;;4992193;28;20687;-73
2022/05/11 04:05:09;;;;;;;9.05;8.45;;;15.90;99.90;;;;;;4996316;28;20204;-75
2022/05/11 04:07:38;;;;;;;12.48;9.70;;;15.90;99.90;;;;;;4994856;28;20206;-73
2022/05/11 04:10:10;;;;;;;9.73;8.98;;;15.80;99.90;;;;;;4986476;28;20276;-73
2022/05/11 04:12:38;;;;;;;9.50;8.80;;;15.90;99.90;;;;;;4987203;28;20276;-73
2022/05/11 04:15:07;;;;;;;9.95;9.25;;;15.80;99.90;;;;;;4992039;28;20256;-73
2022/05/11 04:17:36;;;;;;;9.38;8.68;;;15.90;99.90;;;;;;4992428;28;20202;-75
2022/05/11 04:20:05;;;;;;;9.82;8.82;;;15.90;99.90;;;;;;4988948;28;20659;-74
2022/05/11 04:22:33;;;;;;;9.40;8.68;;;15.90;99.90;;;;;;4987690;28;20198;-75
2022/05/11 04:25:01;;;;;;;11.20;10.25;;;15.90;99.90;;;;;;4991534;28;20248;-74
2022/05/11 04:27:30;;;;;;;9.95;9.25;;;15.90;99.90;;;;;;4990918;28;20268;-74
2022/05/11 04:29:59;;;;;;;11.15;10.15;;;15.90;99.90;;;;;;4987443;28;20226;-73
2022/05/11 04:32:27;;;;;;;11.30;10.30;;;15.90;99.90;;;;;;4984286;28;20217;-76
2022/05/11 04:34:55;;;;;;;9.63;8.93;;;16.00;99.90;;;;;;4974863;28;20469;-73
2022/05/11 04:37:24;;;;;;;9.75;9.05;;;16.00;99.90;;;;;;4977397;28;20345;-72
2022/05/11 04:39:51;;;;;;;10.05;9.18;;;16.20;99.90;;;;;;4978492;28;20285;-72
2022/05/11 04:42:19;;;;;;;10.68;9.68;;;16.20;99.90;;;;;;4976609;28;20292;-72
2022/05/11 04:44:49;;;;;;;11.25;10.18;;;16.20;99.90;;;;;;4975254;28;20210;-76
2022/05/11 04:47:17;;;;;;;9.73;9.07;;;16.30;99.90;;;;;;4979631;28;20237;-73
2022/05/11 04:49:46;;;;;;;11.15;10.30;;;16.30;99.90;;;;;;4977161;28;20195;-74
2022/05/11 04:52:17;;;;;;;9.68;8.85;;;16.30;99.90;;;;;;4977813;28;20989;-73
2022/05/11 04:54:48;;;;;;;10.60;8.85;;;16.40;99.90;;;;;;4976462;28;20245;-72
2022/05/11 04:57:16;;;;;;;10.05;9.25;;;16.40;99.90;;;;;;4978454;28;20322;-74
2022/05/11 04:59:44;;;;;;;10.07;9.32;;;16.40;99.90;;;;;;4978978;28;20284;-72
2022/05/11 05:02:18;;;;;;;9.95;8.95;;;16.40;99.90;;;;;;4978513;28;20295;-74
2022/05/11 05:04:46;;;;;;;10.70;9.85;;;16.40;99.90;;;;;;4976379;28;20635;-75
2022/05/11 05:07:15;;;;;;;9.80;9.10;;;16.50;99.90;;;;;;4978588;28;20232;-73
2022/05/11 05:09:43;;;;;;;11.10;10.15;;;16.60;99.90;;;;;;4977575;28;20229;-73
2022/05/11 05:12:12;;;;;;;10.30;9.50;;;16.50;99.90;;;;;;4979968;28;20261;-73
2022/05/11 05:14:42;;;;;;;9.88;9.07;;;16.70;99.90;;;;;;4979521;28;20245;-77
2022/05/11 05:17:17;;;;;;;10.60;9.90;;;16.80;99.90;;;;;;4983459;28;20213;-73
2022/05/11 05:19:47;;;;;;;12.30;11.40;;;17.00;99.90;;;;;;4982667;28;20241;-74
2022/05/11 05:22:16;;;;;;;9.95;9.25;;;17.10;99.90;;;;;;4981026;28;20220;-73
2022/05/11 05:24:44;;;;;;;12.05;10.98;;;17.20;99.90;;;;;;4978934;28;20237;-73
2022/05/11 05:27:13;;;;;;;13.43;12.32;;;17.20;99.90;;;;;;4981215;28;20695;-73
2022/05/11 05:32:34;;;;;;;11.57;10.68;;;17.20;99.90;;;;;;4980672;28;20888;-72
2022/05/11 05:35:02;;;;;;;13.30;12.20;;;17.20;99.90;;;;;;4978432;28;20233;-73
2022/05/11 05:37:30;;;;;;;11.80;11.00;;;17.20;99.90;;;;;;4982363;28;20213;-74
2022/05/11 05:39:58;;;;;;;12.80;11.57;;;17.10;99.90;;;;;;4987596;28;20300;-73
2022/05/11 05:42:28;;;;;;;11.65;10.75;;;17.10;99.90;;;;;;4994664;28;20206;-74
2022/05/11 05:44:56;;;;;;;11.55;10.55;;;17.20;99.90;;;;;;5001862;28;20233;-72
2022/05/11 05:47:24;;;;;;;12.27;11.02;;;17.30;99.90;;;;;;4994007;28;20690;-73
2022/05/11 05:49:53;;;;;;;14.13;12.93;;;17.30;99.90;;;;;;5000264;28;20202;-72
2022/05/11 05:52:23;;;;;;;12.82;11.82;;;17.20;99.90;;;;;;4994736;28;20576;-72
2022/05/11 05:54:52;;;;;;;11.70;10.80;;;17.30;99.90;;;;;;4998846;28;20276;-74
2022/05/11 05:57:20;;;;;;;13.30;9.52;;;17.20;99.90;;;;;;4994867;28;20297;-72
2022/05/11 05:59:48;;;;;;;13.73;12.60;;;17.30;99.90;;;;;;4993542;28;20555;-73
2022/05/11 06:02:16;;;;;;;16.58;11.70;;;17.40;99.90;;;;;;4998606;28;20205;-73
2022/05/11 06:04:47;;;;;;;13.45;12.10;;;17.50;99.90;;;;;;4998385;28;20617;-72
2022/05/11 06:07:18;;;;;;;13.13;12.00;;;17.60;99.90;;;;;;4991188;28;20252;-73
2022/05/11 06:09:46;;;;;;;14.20;12.70;;;17.60;99.90;;;;;;4998396;28;20256;-72
2022/05/11 06:12:15;;;;;;;13.63;12.45;;;17.50;99.90;;;;;;4987262;28;20244;-73
2022/05/11 06:14:44;;;;;;;14.75;13.65;;;17.50;99.90;;;;;;4994437;28;20576;-72
2022/05/11 06:17:17;;;;;;;14.20;12.80;;;17.60;99.90;;;;;;4994163;28;20320;-72
2022/05/11 06:19:45;;;;;;;13.93;12.77;;;17.70;99.90;;;;;;4994419;28;20271;-73
2022/05/11 06:22:14;;;;;;;16.08;14.68;;;17.70;99.90;;;;;;4992919;28;20305;-72
2022/05/11 06:24:43;;;;;;;13.88;12.23;;;17.80;99.90;;;;;;4993999;28;20226;-71
2022/05/11 06:27:16;;;;;;;14.60;13.43;;;17.90;99.90;;;;;;4993586;28;20245;-73
2022/05/11 06:29:52;;;;;;;13.57;12.18;;;18.10;99.90;;;;;;4994247;28;20309;-73
2022/05/11 06:32:20;;;;;;;14.18;12.93;;;18.20;99.90;;;;;;4993240;28;20321;-73
2022/05/11 06:34:48;;;;;;;13.77;12.48;;;18.20;99.90;;;;;;4994087;28;20218;-74
2022/05/11 06:37:16;;;;;;;13.63;12.40;;;18.30;99.90;;;;;;4991096;28;20317;-72
2022/05/11 06:39:45;;;;;;;11.95;11.05;;;18.50;99.90;;;;;;4997343;28;20340;-73
2022/05/11 06:42:14;;;;;;;11.40;10.55;;;18.60;99.90;;;;;;4998185;28;20236;-72
2022/05/11 06:44:42;;;;;;;13.57;12.57;;;18.80;99.90;;;;;;4993746;28;20293;-72
2022/05/11 06:47:10;;;;;;;12.50;11.43;;;18.80;99.90;;;;;;4993303;28;20755;-70
2022/05/11 06:49:38;;;;;;;13.10;12.10;;;18.90;99.90;;;;;;4993433;28;20245;-72
2022/05/11 06:52:06;;;;;;;12.35;11.20;;;18.90;99.90;;;;;;4992824;28;20298;-72
2022/05/11 07:00:08;;;;;;;13.40;12.32;;;19.20;99.90;;;;;;4993334;28;20252;-72
2022/05/11 07:02:37;;;;;;;13.60;12.50;;;19.30;99.90;;;;;;4992645;28;20210;-72
2022/05/11 07:05:07;;;;;;;12.52;11.32;;;19.40;99.90;;;;;;4993260;28;20208;-73
2022/05/11 07:07:36;;;;;;;14.93;11.45;;;19.60;99.90;;;;;;4993145;28;20726;-72
2022/05/11 07:10:05;;;;;;;12.45;11.55;;;19.70;99.90;;;;;;4995925;28;20698;-72
2022/05/11 07:12:35;;;;;;;11.65;10.52;;;19.80;99.90;;;;;;4992204;28;20264;-72
2022/05/11 07:15:06;;;;;;;10.63;9.82;;;19.90;99.90;;;;;;4993469;28;20205;-72
2022/05/11 07:17:38;;;;;;;11.80;10.63;;;20.00;99.90;;;;;;4992816;28;20241;-72
2022/05/11 07:20:08;;;;;;;11.23;10.32;;;20.10;99.90;;;;;;4993120;28;20795;-72
2022/05/11 07:22:38;;;;;;;11.43;10.32;;;20.20;99.90;;;;;;4992358;28;20201;-72
2022/05/11 07:25:08;;;;;;;10.82;9.88;;;20.30;99.90;;;;;;4993212;28;20276;-72
2022/05/11 07:27:38;;;;;;;12.55;11.43;;;20.50;99.90;;;;;;4992429;28;20210;-72
2022/05/11 07:30:08;;;;;;;11.15;10.20;;;20.70;99.90;;;;;;4992793;28;20202;-73
2022/05/11 07:32:37;;;;;;;11.82;10.93;;;20.80;99.90;;;;;;4992199;28;20206;-72
2022/05/11 07:35:06;;;;;;;10.15;9.27;;;20.80;99.90;;;;;;4991464;28;20221;-73
2022/05/11 07:37:33;;;;;;;10.82;9.93;;;20.80;99.90;;;;;;4987014;28;20692;-74
2022/05/11 07:40:02;;;;;;;9.80;9.00;;;21.00;99.90;;;;;;5001005;28;20209;-73
2022/05/11 07:42:31;;;;;;;10.38;9.43;;;21.00;99.90;;;;;;4994563;28;20679;-76
2022/05/11 07:45:00;;;;;;;8.35;7.65;;;21.20;99.90;;;;;;4992436;28;20230;-71
2022/05/11 07:47:28;;;;;;;11.32;10.48;;;21.30;99.90;;;;;;4991889;28;20675;-72
2022/05/11 07:49:56;;;;;;;9.10;8.50;;;21.40;99.90;;;;;;4991938;28;20233;-73
2022/05/11 07:52:24;;;;;;;10.77;9.88;;;21.60;99.90;;;;;;4991782;28;20240;-72
2022/05/11 07:54:52;;;;;;;10.35;9.55;;;21.70;99.90;;;;;;4992052;28;20316;-72
2022/05/11 08:00:09;;;;;;;9.98;9.13;;;21.80;99.90;;;;;;4991835;28;20659;-73
2022/05/11 08:02:40;;;;;;;8.82;8.23;;;22.10;99.90;;;;;;4991411;28;20697;-73
2022/05/11 08:05:10;;;;;;;9.20;8.30;;;22.30;99.90;;;;;;4992349;28;20272;-74
2022/05/11 08:07:40;;;;;;;9.15;8.45;;;22.30;99.90;;;;;;4989683;28;20256;-75
2022/05/11 08:10:12;;;;;;;9.18;8.48;;;22.40;99.90;;;;;;4994254;28;20209;-73
2022/05/11 08:12:40;;;;;;;9.18;8.32;;;22.50;99.90;;;;;;4991249;28;20260;-72
2022/05/11 08:15:11;;;;;;;9.23;8.43;;;22.60;99.90;;;;;;4991653;28;20312;-73
2022/05/11 08:17:41;;;;;;;10.13;9.13;;;22.70;99.90;;;;;;4991229;28;20205;-74
2022/05/11 08:20:14;;;;;;;10.40;9.27;;;23.00;99.90;;;;;;4992193;28;20287;-74
2022/05/11 08:22:42;;;;;;;10.90;9.90;;;23.00;99.90;;;;;;4990942;28;20213;-72
2022/05/11 08:25:10;;;;;;;8.85;8.10;;;23.10;99.90;;;;;;4991813;28;20280;-73
2022/05/11 08:27:38;;;;;;;8.30;7.70;;;23.20;99.90;;;;;;4991208;28;20201;-73
2022/05/11 08:36:04;;;;;;;8.65;7.90;;;23.60;99.90;;;;;;4991051;28;20237;-73
2022/05/11 08:38:34;;;;;;;9.95;8.93;;;23.60;99.90;;;;;;4986158;28;20210;-73
2022/05/11 08:41:06;;;;;;;11.48;10.43;;;23.80;99.90;;;;;;5002869;28;20197;-70
2022/05/11 08:43:36;;;;;;;8.52;7.93;;;23.80;99.90;;;;;;4989813;28;20698;-72
2022/05/11 08:46:14;;;;;;;8.95;8.25;;;24.10;99.90;;;;;;4989229;28;20276;-70
2022/05/11 08:48:56;;;;;;;8.80;7.93;;;24.30;99.90;;;;;;4990233;28;20210;-71
2022/05/11 08:51:30;;;;;;;7.75;7.15;;;24.60;99.90;;;;;;4985690;28;20268;-71
2022/05/11 08:54:09;;;;;;;8.07;7.13;;;24.90;99.90;;;;;;4990733;28;20308;-71
2022/05/11 08:56:38;;;;;;;6.97;6.38;;;25.20;99.90;;;;;;4991125;28;20257;-71
2022/05/11 08:59:19;;;;;;;8.15;7.55;;;25.50;99.90;;;;;;4991348;28;20209;-71
2022/05/11 09:01:51;;;;;;;8.30;6.85;;;25.70;99.90;;;;;;4991449;28;20624;-71
2022/05/11 09:04:24;;;;;;;6.72;6.18;;;25.80;99.90;;;;;;4990613;28;20206;-71
2022/05/11 09:06:52;;;;;;;6.80;6.20;;;26.10;99.90;;;;;;4991181;28;20225;-73
2022/05/11 09:09:20;;;;;;;5.60;5.20;;;26.50;99.90;;;;;;4991399;28;20671;-71
2022/05/11 09:11:51;;;;;;;6.57;6.07;;;26.70;99.90;;;;;;4991507;28;20206;-73
2022/05/11 09:14:23;;;;;;;6.50;5.97;;;26.70;99.90;;;;;;4990697;28;20635;-73
2022/05/11 09:16:54;;;;;;;10.70;5.65;;;26.90;99.90;;;;;;5000140;28;20313;-74
2022/05/11 09:19:27;;;;;;;5.28;4.95;;;27.10;99.90;;;;;;4991792;28;20264;-73
2022/05/11 09:22:05;;;;;;;5.05;4.57;;;27.30;99.90;;;;;;4991192;28;20562;-72
2022/05/11 09:24:38;;;;;;;6.85;5.35;;;27.30;99.90;;;;;;4991111;28;20750;-73
2022/05/11 09:27:23;;;;;;;5.90;4.10;;;27.30;99.70;;;;;;4991083;28;20236;-75
2022/05/11 09:29:58;;;;;;;4.15;3.85;;;27.20;99.40;;;;;;4990982;28;20240;-73
2022/05/11 09:32:33;;;;;;;5.18;4.68;;;27.50;99.30;;;;;;4990475;28;20257;-73
2022/05/11 09:35:23;;;;;;;4.70;3.88;;;27.70;99.40;;;;;;4985689;28;20320;-73
2022/05/11 09:38:05;;;;;;;6.18;3.17;;;27.80;99.60;;;;;;4992073;28;20236;-73
2022/05/11 09:40:53;;;;;;;5.15;2.65;;;28.20;97.20;;;;;;4991241;28;20201;-73
2022/05/11 09:43:33;;;;;;;2.95;2.75;;;28.30;96.00;;;;;;4990480;28;20238;-74
2022/05/11 09:46:01;;;;;;;3.55;2.70;;;28.60;95.20;;;;;;4994404;28;20221;-74
2022/05/11 09:48:37;;;;;;;3.67;3.03;;;28.80;94.70;;;;;;5002265;28;20245;-73
2022/05/11 09:51:19;;;;;;;4.40;3.28;;;29.10;94.80;;;;;;4990885;28;20208;-73
2022/05/11 09:53:52;;;;;;;3.53;2.60;;;29.20;93.50;;;;;;4987537;28;20213;-73
2022/05/11 09:56:46;;;;;;;2.70;2.50;;;29.10;92.70;;;;;;4991606;28;20526;-73
2022/05/11 09:59:22;;;;;;;3.70;2.67;;;29.00;93.10;;;;;;4995639;28;20209;-74
2022/05/11 10:01:55;;;;;;;3.53;3.20;;;28.90;93.80;;;;;;4995015;28;20732;-74
2022/05/11 10:04:31;;;;;;;3.45;2.88;;;29.00;92.50;;;;;;4994684;28;20202;-73
2022/05/11 10:07:08;;;;;;;3.60;3.35;;;29.20;92.40;;;;;;4988951;28;20254;-74
2022/05/11 10:09:41;;;;;;;4.75;2.92;;;29.40;92.30;;;;;;4994525;28;20663;-73
2022/05/11 10:12:16;;;;;;;4.93;2.42;;;29.60;91.10;;;;;;4993391;28;20266;-72
2022/05/11 10:23:52;;;;;;;4.22;3.20;;;29.40;90.30;;;;;;4993179;28;20603;-73
2022/05/11 10:26:26;;;;;;;3.00;2.80;;;29.40;90.10;;;;;;4994072;28;20218;-74
2022/05/11 10:28:59;;;;;;;3.28;2.97;;;29.40;90.50;;;;;;4994171;28;20663;-74
2022/05/11 10:31:34;;;;;;;5.50;2.75;;;29.60;90.70;;;;;;4993891;28;20244;-73
2022/05/11 10:34:12;;;;;;;3.70;2.60;;;29.70;89.70;;;;;;4993260;28;20206;-76
2022/05/11 10:36:49;;;;;;;3.58;3.20;;;29.90;89.50;;;;;;4993886;28;20316;-72
2022/05/11 10:39:29;;;;;;;3.28;3.08;;;30.10;90.10;;;;;;4993905;28;20293;-73
2022/05/11 10:42:03;;;;;;;8.98;3.22;;;29.80;88.60;;;;;;4993389;28;20248;-74
2022/05/11 10:44:48;;;;;;;5.00;3.30;;;30.00;88.50;;;;;;4990076;28;20214;-72
2022/05/11 10:47:34;;;;;;;2.38;2.17;;;30.10;88.00;;;;;;4998732;28;20789;-72
2022/05/11 10:50:14;;;;;;;3.53;2.80;;;30.20;87.60;;;;;;4996984;28;20237;-72
2022/05/11 10:53:14;;;;;;;2.75;2.20;;;30.50;87.80;;;;;;4992638;28;20209;-72
2022/05/11 10:55:58;;;;;;;3.25;2.58;;;30.50;87.30;;;;;;4993214;28;20229;-69
2022/05/11 10:58:41;;;;;;;6.95;2.78;;;30.40;85.90;;;;;;4993523;28;20253;-74
2022/05/11 11:01:11;;;;;;;3.58;2.92;;;30.30;84.90;;;;;;4993535;28;20230;-73
2022/05/11 11:04:15;;;;;;;3.65;3.03;;;30.40;86.40;;;;;;4986728;28;20636;-71
2022/05/11 11:10:04;;;;;;;5.38;2.40;;;30.00;84.40;;;;;;4993838;28;20241;-74
2022/05/11 11:12:53;;;;;;;3.45;2.60;;;29.70;85.00;;;;;;4992429;28;20214;-74
2022/05/11 11:15:26;;;;;;;4.53;2.60;;;30.10;85.10;;;;;;4997037;28;20682;-73
2022/05/11 11:17:56;;;;;;;3.38;3.08;;;30.10;83.90;;;;;;4996743;28;20198;-74
2022/05/11 11:20:25;;;;;;;3.38;3.17;;;29.70;83.90;;;;;;4993271;28;20289;-76
2022/05/11 11:23:06;;;;;;;3.85;2.63;;;29.40;85.40;;;;;;4992117;28;20241;-73
2022/05/11 11:26:02;;;;;;;3.30;2.85;;;29.30;84.90;;;;;;4993011;28;20213;-73
2022/05/11 11:28:33;;;;;;;2.85;2.65;;;29.50;84.30;;;;;;4979448;28;20491;-74
2022/05/11 11:31:21;;;;;;;3.40;3.15;;;29.90;84.40;;;;;;4992849;28;20235;-74
2022/05/11 11:34:09;;;;;;;4.03;2.65;;;30.20;83.50;;;;;;4992128;28;20209;-73
2022/05/11 11:36:40;;;;;;;4.13;2.55;;;30.30;83.40;;;;;;4992234;28;20229;-73
2022/05/11 11:39:11;;;;;;;3.42;2.67;;;30.60;82.10;;;;;;4992639;28;20656;-70
2022/05/11 11:42:03;;;;;;;4.30;2.63;;;30.50;82.70;;;;;;4992472;28;20252;-73
2022/05/11 11:44:39;;;;;;;3.25;2.95;;;30.70;83.20;;;;;;4988590;28;20667;-73
2022/05/11 11:47:43;;;;;;;2.70;2.50;;;30.40;83.20;;;;;;4996338;28;20247;-72
2022/05/11 11:50:35;;;;;;;2.55;2.35;;;30.10;81.60;;;;;;4949980;28;20225;-73
2022/05/11 11:53:10;;;;;;;2.45;2.25;;;30.00;81.30;;;;;;4991084;28;20578;-73
2022/05/11 11:55:38;;;;;;;4.53;2.88;;;29.70;81.60;;;;;;4992451;28;20226;-72
2022/05/11 11:58:20;;;;;;;7.05;2.97;;;29.80;83.30;;;;;;4992499;28;20245;-72
2022/05/11 12:01:11;;;;;;;2.67;2.10;;;30.00;82.40;;;;;;4992247;28;20248;-75
2022/05/11 12:03:51;;;;;;;3.33;2.80;;;30.00;81.40;;;;;;4985147;28;20208;-76
2022/05/11 12:15:03;;;;;;;3.80;3.47;;;30.30;82.10;;;;;;4993024;28;20206;-75
2022/05/11 12:17:35;;;;;;;4.55;3.55;;;30.50;81.90;;;;;;4995649;28;20253;-74
2022/05/11 12:20:10;;;;;;;3.10;2.85;;;30.40;81.60;;;;;;4985960;28;20605;-73
2022/05/11 12:22:43;;;;;;;2.70;2.50;;;30.20;80.50;;;;;;4986187;28;20214;-75
2022/05/11 12:25:20;;;;;;;6.90;2.63;;;30.20;80.40;;;;;;4991962;28;20233;-76
2022/05/11 12:27:48;;;;;;;3.25;2.95;;;30.60;81.50;;;;;;4991584;28;20206;-70
2022/05/11 12:30:23;;;;;;;3.35;3.05;;;31.10;80.40;;;;;;4991796;28;20287;-74
2022/05/11 12:32:54;;;;;;;3.25;2.83;;;31.70;79.30;;;;;;4990746;28;20671;-74
2022/05/11 12:35:26;;;;;;;3.07;2.73;;;32.10;79.80;;;;;;4991441;28;20300;-73
2022/05/11 12:37:56;;;;;;;5.55;3.17;;;32.00;78.70;;;;;;4991805;28;20210;-73
2022/05/11 12:40:24;;;;;;;2.80;2.60;;;31.90;78.00;;;;;;4991706;28;20244;-72
2022/05/11 12:42:54;;;;;;;4.57;2.90;;;31.60;77.70;;;;;;4990799;28;20210;-73
2022/05/11 12:45:34;;;;;;;3.65;2.65;;;31.50;77.80;;;;;;4991654;28;20680;-72
2022/05/11 12:48:03;;;;;;;6.10;2.90;;;31.60;76.80;;;;;;5003939;28;20209;-72
2022/05/11 12:50:34;;;;;;;6.13;2.95;;;31.30;76.60;;;;;;4991635;28;20679;-73
2022/05/11 12:53:24;;;;;;;3.38;3.08;;;31.00;77.10;;;;;;4990821;28;20205;-73
2022/05/11 12:55:54;;;;;;;3.30;2.70;;;30.90;76.30;;;;;;4991395;28;20280;-71
2022/05/11 12:58:27;;;;;;;4.35;2.75;;;31.10;77.10;;;;;;4991562;28;20221;-75
2022/05/11 13:00:59;;;;;;;3.20;2.90;;;31.40;77.70;;;;;;4991563;28;20256;-72
2022/05/11 13:03:29;;;;;;;3.38;3.17;;;31.90;77.40;;;;;;4990799;28;20198;-73
2022/05/11 13:06:01;;;;;;;2.93;2.73;;;32.40;76.90;;;;;;4991468;28;20268;-71
2022/05/11 13:08:34;;;;;;;2.83;2.47;;;32.80;74.80;;;;;;4985145;28;21204;-75
2022/05/11 13:11:11;;;;;;;3.43;2.40;;;32.90;75.90;;;;;;4986890;28;21061;-72
2022/05/11 13:13:43;;;;;;;5.60;2.70;;;33.20;73.40;;;;;;4990609;28;20613;-72
2022/05/11 13:16:18;;;;;;;2.67;2.40;;;33.10;73.60;;;;;;4997237;28;20672;-73
2022/05/11 13:18:47;;;;;;;6.67;3.10;;;33.20;73.20;;;;;;4991974;28;20624;-72
2022/05/11 13:21:27;;;;;;;3.70;2.53;;;33.40;73.90;;;;;;4991677;28;21039;-73
2022/05/11 13:23:55;;;;;;;3.00;2.80;;;33.00;72.90;;;;;;4990170;28;20651;-72
2022/05/11 13:26:36;;;;;;;3.33;2.07;;;32.70;72.40;;;;;;4991146;28;20691;-73
2022/05/11 13:29:17;;;;;;;2.63;2.43;;;32.80;72.70;;;;;;4986177;28;20613;-73
2022/05/11 13:32:00;;;;;;;3.37;3.17;;;32.80;72.50;;;;;;4991005;28;21247;-71
2022/05/11 13:34:31;;;;;;;2.90;2.53;;;32.90;73.00;;;;;;4994860;28;20597;-72
2022/05/11 13:37:01;;;;;;;3.23;3.03;;;33.00;72.30;;;;;;4994991;28;20704;-73
2022/05/11 13:39:35;;;;;;;3.87;2.90;;;33.30;73.10;;;;;;4994801;28;20608;-73
2022/05/11 13:42:11;;;;;;;4.33;2.80;;;33.50;72.10;;;;;;4994153;28;21283;-73
2022/05/11 13:44:45;;;;;;;4.80;2.60;;;33.30;72.60;;;;;;4988394;28;20614;-74
2022/05/11 13:50:30;;;;;;;7.20;2.80;;;32.90;71.50;;;;;;4993904;28;20612;-73
2022/05/11 13:53:02;;;;;;;5.50;2.73;;;32.30;73.30;;;;;;4994016;28;21009;-73
2022/05/11 13:55:32;;;;;;;4.10;3.05;;;32.00;73.10;;;;;;4994746;28;20688;-74